createdAt,value
2023-10-31T00:02:13.808Z,13.01
2023-10-31T00:04:41.047Z,13.04
2023-10-31T00:07:08.415Z,13.02
2023-10-31T00:09:35.586Z,13.11
2023-10-31T00:12:02.939Z,13.11
2023-10-31T00:14:31.634Z,13.00
2023-10-31T00:17:02.580Z,13.05
2023-10-31T00:19:29.980Z,12.97
2023-10-31T00:21:57.260Z,12.94
2023-10-31T00:24:24.510Z,12.92
2023-10-31T00:26:52.194Z,12.82
2023-10-31T00:29:19.726Z,12.72
2023-10-31T00:31:46.991Z,12.96
2023-10-31T00:34:14.277Z,12.85
2023-10-31T00:36:41.506Z,12.88
2023-10-31T00:39:08.785Z,12.93
2023-10-31T00:41:35.975Z,13.01
2023-10-31T00:44:03.572Z,12.99
2023-10-31T00:46:31.074Z,12.98
2023-10-31T00:48:58.676Z,12.95
2023-10-31T00:51:25.919Z,12.98
2023-10-31T00:53:53.248Z,12.94
2023-10-31T00:56:20.629Z,12.93
2023-10-31T00:58:48.018Z,12.98
2023-10-31T01:01:15.832Z,12.96
2023-10-31T01:03:43.499Z,12.92
2023-10-31T01:06:10.934Z,12.90
2023-10-31T01:08:38.264Z,12.78
2023-10-31T01:11:05.483Z,12.88
2023-10-31T01:13:32.818Z,12.69
2023-10-31T01:16:00.131Z,12.79
2023-10-31T01:18:27.466Z,12.75
2023-10-31T01:20:54.708Z,12.73
2023-10-31T01:23:22.088Z,12.72
2023-10-31T01:25:49.276Z,12.75
2023-10-31T01:28:17.051Z,12.66
2023-10-31T01:30:44.285Z,12.78
2023-10-31T01:33:12.091Z,12.93
2023-10-31T01:35:39.434Z,12.76
2023-10-31T01:38:07.253Z,12.88
2023-10-31T01:40:34.571Z,12.91
2023-10-31T01:43:01.910Z,12.89
2023-10-31T01:45:29.270Z,12.83
2023-10-31T01:47:56.643Z,12.85
2023-10-31T01:50:23.981Z,12.75
2023-10-31T01:52:51.600Z,12.86
2023-10-31T01:55:19.041Z,12.87
2023-10-31T01:57:46.467Z,12.71
2023-10-31T02:00:14.299Z,12.70
2023-10-31T02:02:45.342Z,12.89
2023-10-31T02:05:12.681Z,12.71
2023-10-31T02:07:39.937Z,12.62
2023-10-31T02:10:07.575Z,12.55
2023-10-31T02:12:38.489Z,12.63
2023-10-31T02:15:06.890Z,12.49
2023-10-31T02:17:34.102Z,12.70
2023-10-31T02:20:01.375Z,12.59
2023-10-31T02:22:28.839Z,12.61
2023-10-31T02:24:56.139Z,12.51
2023-10-31T02:27:23.315Z,12.47
2023-10-31T02:29:50.625Z,12.59
2023-10-31T02:32:17.927Z,12.65
2023-10-31T02:34:48.164Z,12.65
2023-10-31T02:37:15.547Z,12.70
2023-10-31T02:39:43.196Z,12.69
2023-10-31T02:42:10.540Z,12.75
2023-10-31T02:44:37.784Z,12.79
2023-10-31T02:47:05.407Z,12.70
2023-10-31T02:49:32.675Z,12.81
2023-10-31T02:51:59.879Z,12.77
2023-10-31T02:54:27.122Z,12.79
2023-10-31T02:56:54.480Z,12.79
2023-10-31T02:59:21.690Z,12.77
2023-10-31T03:01:49.096Z,12.71
2023-10-31T03:04:16.432Z,12.72
2023-10-31T03:06:44.400Z,12.67
2023-10-31T03:09:11.666Z,12.54
2023-10-31T03:11:38.870Z,12.56
2023-10-31T03:14:06.242Z,12.64
2023-10-31T03:16:34.132Z,12.58
2023-10-31T03:19:02.689Z,12.47
2023-10-31T03:21:30.094Z,12.51
2023-10-31T03:23:57.270Z,12.50
2023-10-31T03:26:24.541Z,12.47
2023-10-31T03:28:51.840Z,12.38
2023-10-31T03:31:19.270Z,12.38
2023-10-31T03:33:46.556Z,12.41
2023-10-31T03:36:13.916Z,12.31
2023-10-31T03:38:41.317Z,12.15
2023-10-31T03:41:09.285Z,12.23
2023-10-31T03:43:37.037Z,12.26
2023-10-31T03:46:05.649Z,12.25
2023-10-31T03:48:33.049Z,12.21
2023-10-31T03:51:00.577Z,12.27
2023-10-31T03:53:27.765Z,12.28
2023-10-31T03:55:55.016Z,12.35
2023-10-31T03:58:23.171Z,12.31
2023-10-31T04:00:50.503Z,12.33
2023-10-31T04:03:17.804Z,12.22
2023-10-31T04:05:45.376Z,12.18
2023-10-31T04:08:12.744Z,12.25
2023-10-31T04:10:40.135Z,12.16
2023-10-31T04:13:07.331Z,12.13
2023-10-31T04:15:36.065Z,12.18
2023-10-31T04:18:03.519Z,12.12
2023-10-31T04:20:30.838Z,12.17
2023-10-31T04:22:58.095Z,12.16
2023-10-31T04:25:25.704Z,12.20
2023-10-31T04:27:52.864Z,12.21
2023-10-31T04:30:20.065Z,12.24
2023-10-31T04:32:47.429Z,12.17
2023-10-31T04:35:14.741Z,12.24
2023-10-31T04:37:41.906Z,12.29
2023-10-31T04:40:09.808Z,12.22
2023-10-31T04:42:37.124Z,12.32
2023-10-31T04:45:04.617Z,12.33
2023-10-31T04:47:34.760Z,12.28
2023-10-31T04:50:02.274Z,12.32
2023-10-31T04:52:29.535Z,12.37
2023-10-31T04:54:56.813Z,12.25
2023-10-31T04:57:24.279Z,12.01
2023-10-31T04:59:51.715Z,12.10
2023-10-31T05:02:19.027Z,12.04
2023-10-31T05:04:46.895Z,11.79
2023-10-31T05:07:14.286Z,11.66
2023-10-31T05:09:45.717Z,11.47
2023-10-31T05:12:14.413Z,11.65
2023-10-31T05:14:42.079Z,11.60
2023-10-31T05:17:09.425Z,11.44
2023-10-31T05:19:36.593Z,11.60
2023-10-31T05:22:04.154Z,11.61
2023-10-31T05:24:33.487Z,11.68
2023-10-31T05:27:00.877Z,11.56
2023-10-31T05:29:28.194Z,11.56
2023-10-31T05:31:55.562Z,11.38
2023-10-31T05:34:22.830Z,11.36
2023-10-31T05:36:50.281Z,11.53
2023-10-31T05:39:17.538Z,11.51
2023-10-31T05:41:44.780Z,11.46
2023-10-31T05:44:12.252Z,11.38
2023-10-31T05:46:43.217Z,11.61
2023-10-31T05:49:11.289Z,11.53
2023-10-31T05:51:38.511Z,11.61
2023-10-31T05:54:08.449Z,11.69
2023-10-31T05:56:35.709Z,11.93
2023-10-31T05:59:02.994Z,12.06
2023-10-31T06:01:30.495Z,11.99
2023-10-31T06:03:57.859Z,12.08
2023-10-31T06:06:25.045Z,12.00
2023-10-31T06:08:52.480Z,12.18
2023-10-31T06:11:19.872Z,12.01
2023-10-31T06:13:49.168Z,12.18
2023-10-31T06:16:16.580Z,12.25
2023-10-31T06:18:43.783Z,12.31
2023-10-31T06:21:10.976Z,12.37
2023-10-31T06:23:38.938Z,12.38
2023-10-31T06:26:06.412Z,12.50
2023-10-31T06:28:39.273Z,12.42
2023-10-31T06:31:09.764Z,12.56
2023-10-31T06:33:37.014Z,12.39
2023-10-31T06:36:04.721Z,12.61
2023-10-31T06:38:32.269Z,12.80
2023-10-31T06:41:00.154Z,12.91
2023-10-31T06:43:30.394Z,12.82
2023-10-31T06:46:01.796Z,13.04
2023-10-31T06:48:29.266Z,12.76
2023-10-31T06:50:56.512Z,13.06
2023-10-31T06:53:23.756Z,13.31
2023-10-31T06:55:52.445Z,13.37
2023-10-31T06:58:19.856Z,13.66
2023-10-31T07:00:47.276Z,13.69
2023-10-31T07:03:16.891Z,13.67
2023-10-31T07:05:44.213Z,13.91
2023-10-31T07:08:11.649Z,13.74
2023-10-31T07:10:39.076Z,13.95
2023-10-31T07:13:07.249Z,14.55
2023-10-31T07:15:40.111Z,16.25
2023-10-31T07:18:10.547Z,19.32
2023-10-31T07:20:37.852Z,19.99
2023-10-31T07:23:05.229Z,20.33
2023-10-31T07:25:32.636Z,20.99
2023-10-31T07:27:59.971Z,22.37
2023-10-31T07:30:28.172Z,23.21
2023-10-31T07:32:55.662Z,24.23
2023-10-31T07:35:23.025Z,23.19
2023-10-31T07:37:50.272Z,23.57
2023-10-31T07:40:17.664Z,23.78
2023-10-31T07:42:44.960Z,24.13
2023-10-31T07:45:13.601Z,24.07
2023-10-31T07:47:43.104Z,22.92
2023-10-31T07:50:11.400Z,24.04
2023-10-31T07:52:38.635Z,25.52
2023-10-31T07:55:06.460Z,25.30
2023-10-31T07:57:33.751Z,24.40
2023-10-31T08:00:01.804Z,24.66
2023-10-31T08:02:39.652Z,25.02
2023-10-31T08:05:08.657Z,23.92
2023-10-31T08:07:36.524Z,25.09
2023-10-31T08:10:05.228Z,24.64
2023-10-31T08:12:32.882Z,23.65
2023-10-31T08:15:01.111Z,23.61
2023-10-31T08:17:28.396Z,24.05
2023-10-31T08:19:55.776Z,23.77
2023-10-31T08:22:23.955Z,23.52
2023-10-31T08:24:51.345Z,24.11
2023-10-31T08:27:18.974Z,23.66
2023-10-31T08:29:46.514Z,24.87
2023-10-31T08:32:13.948Z,24.16
2023-10-31T08:34:41.580Z,23.95
2023-10-31T08:37:09.081Z,23.72
2023-10-31T08:39:36.415Z,24.16
2023-10-31T08:42:07.282Z,23.30
2023-10-31T08:44:34.867Z,23.55
2023-10-31T08:47:02.455Z,23.18
2023-10-31T08:49:30.192Z,22.40
2023-10-31T08:51:57.502Z,23.13
2023-10-31T08:54:24.882Z,22.51
2023-10-31T08:56:52.165Z,22.96
2023-10-31T08:59:19.604Z,23.11
2023-10-31T09:01:47.182Z,22.73
2023-10-31T09:04:14.850Z,23.36
2023-10-31T09:06:42.043Z,22.01
2023-10-31T09:09:11.517Z,22.75
2023-10-31T09:11:39.161Z,22.38
2023-10-31T09:14:06.777Z,21.88
2023-10-31T09:16:34.121Z,22.25
2023-10-31T09:19:01.762Z,22.25
2023-10-31T09:21:29.240Z,22.23
2023-10-31T09:23:56.555Z,22.23
2023-10-31T09:26:23.942Z,22.34
2023-10-31T09:28:51.647Z,22.49
2023-10-31T09:31:19.440Z,22.40
2023-10-31T09:33:47.121Z,22.40
2023-10-31T09:36:15.684Z,22.28
2023-10-31T09:38:43.224Z,22.42
2023-10-31T09:41:10.596Z,22.38
2023-10-31T09:43:38.606Z,22.54
2023-10-31T09:46:06.615Z,22.31
2023-10-31T09:48:34.351Z,22.01
2023-10-31T09:51:01.923Z,22.58
2023-10-31T09:53:30.099Z,22.64
2023-10-31T09:55:58.768Z,22.57
2023-10-31T09:58:26.134Z,22.59
2023-10-31T10:00:53.351Z,22.36
2023-10-31T10:03:20.838Z,22.60
2023-10-31T10:05:48.392Z,22.56
2023-10-31T10:08:16.179Z,22.87
2023-10-31T10:10:43.837Z,22.89
2023-10-31T10:13:12.063Z,22.83
2023-10-31T10:15:53.490Z,22.92
2023-10-31T10:18:30.466Z,22.79
2023-10-31T10:21:01.324Z,23.05
2023-10-31T10:23:28.936Z,22.35
2023-10-31T10:25:57.133Z,22.74
2023-10-31T10:28:27.942Z,22.62
2023-10-31T10:30:55.303Z,22.28
2023-10-31T10:33:23.149Z,22.50
2023-10-31T10:35:50.581Z,22.88
2023-10-31T10:38:19.078Z,22.87
2023-10-31T10:40:48.602Z,22.45
2023-10-31T10:43:26.102Z,22.11
2023-10-31T10:45:57.049Z,22.80
2023-10-31T10:48:28.335Z,22.99
2023-10-31T10:51:05.455Z,23.31
2023-10-31T10:53:37.241Z,23.16
2023-10-31T10:56:07.060Z,23.38
2023-10-31T10:58:54.597Z,23.43
2023-10-31T11:01:22.031Z,23.51
2023-10-31T11:03:49.299Z,23.43
2023-10-31T11:06:16.665Z,23.17
2023-10-31T11:08:44.271Z,23.12
2023-10-31T11:11:11.884Z,22.97
2023-10-31T11:13:39.368Z,23.24
2023-10-31T11:16:12.740Z,23.38
2023-10-31T11:18:40.397Z,23.36
2023-10-31T11:21:07.685Z,22.93
2023-10-31T11:23:35.028Z,23.18
2023-10-31T11:26:02.579Z,23.18
2023-10-31T11:28:30.425Z,23.22
2023-10-31T11:31:02.270Z,23.06
2023-10-31T11:33:29.890Z,22.98
2023-10-31T11:36:04.500Z,23.21
2023-10-31T11:38:36.202Z,22.71
2023-10-31T11:41:04.652Z,23.05
2023-10-31T11:43:41.070Z,23.13
2023-10-31T11:46:22.193Z,23.20
2023-10-31T11:48:53.149Z,23.09
2023-10-31T11:51:21.001Z,22.96
2023-10-31T11:53:50.785Z,22.73
2023-10-31T11:56:21.213Z,22.76
2023-10-31T11:59:02.743Z,22.45
2023-10-31T12:01:30.241Z,22.24
2023-10-31T12:03:57.847Z,21.89
2023-10-31T12:06:25.235Z,21.97
2023-10-31T12:08:52.628Z,22.26
2023-10-31T12:11:21.947Z,22.20
2023-10-31T12:14:03.119Z,22.13
2023-10-31T12:16:32.305Z,21.81
2023-10-31T12:19:04.042Z,21.88
2023-10-31T12:21:38.102Z,21.85
2023-10-31T12:24:09.838Z,21.77
2023-10-31T12:26:37.285Z,21.74
2023-10-31T12:29:20.897Z,21.75
2023-10-31T12:31:53.715Z,21.88
2023-10-31T12:34:22.896Z,21.88
2023-10-31T12:36:51.624Z,22.10
2023-10-31T12:39:22.185Z,21.76
2023-10-31T12:41:49.568Z,21.75
2023-10-31T12:44:20.247Z,21.69
2023-10-31T12:46:48.083Z,21.68
2023-10-31T12:49:19.400Z,21.63
2023-10-31T12:52:03.268Z,21.46
2023-10-31T12:54:31.594Z,21.27
2023-10-31T12:57:16.805Z,21.49
2023-10-31T12:59:44.173Z,21.38
2023-10-31T13:02:12.462Z,21.38
2023-10-31T13:04:40.880Z,21.29
2023-10-31T13:07:09.183Z,21.42
2023-10-31T13:09:38.268Z,21.36
2023-10-31T13:12:07.109Z,21.28
2023-10-31T13:14:35.061Z,21.32
2023-10-31T13:17:04.580Z,21.10
2023-10-31T13:19:32.209Z,21.09
2023-10-31T13:21:59.620Z,21.03
2023-10-31T13:24:27.001Z,21.11
2023-10-31T13:26:54.265Z,21.00
2023-10-31T13:29:22.208Z,21.04
2023-10-31T13:31:49.671Z,21.02
2023-10-31T13:34:17.042Z,21.07
2023-10-31T13:36:45.822Z,21.03
2023-10-31T13:39:13.525Z,20.96
2023-10-31T13:41:40.792Z,21.12
2023-10-31T13:44:08.262Z,21.15
2023-10-31T13:46:35.760Z,21.06
2023-10-31T13:49:04.785Z,21.04
2023-10-31T13:51:32.117Z,20.98
2023-10-31T13:53:59.939Z,20.87
2023-10-31T13:56:27.590Z,20.80
2023-10-31T13:58:54.972Z,20.81
2023-10-31T14:01:26.304Z,20.80
2023-10-31T14:03:54.004Z,20.75
2023-10-31T14:06:21.513Z,20.52
2023-10-31T14:08:49.036Z,20.55
2023-10-31T14:11:16.818Z,20.46
2023-10-31T14:13:46.057Z,20.35
2023-10-31T14:16:13.723Z,20.26
2023-10-31T14:18:42.205Z,20.29
2023-10-31T14:21:12.415Z,20.43
2023-10-31T14:23:39.724Z,20.38
2023-10-31T14:26:07.296Z,20.29
2023-10-31T14:28:35.000Z,20.02
2023-10-31T14:31:02.431Z,20.07
2023-10-31T14:33:31.383Z,20.04
2023-10-31T14:36:00.189Z,19.96
2023-10-31T14:38:27.427Z,19.82
2023-10-31T14:40:54.737Z,19.80
2023-10-31T14:43:22.075Z,19.77
2023-10-31T14:45:49.520Z,19.68
2023-10-31T14:48:16.840Z,19.63
2023-10-31T14:50:44.074Z,19.51
2023-10-31T14:53:11.540Z,19.46
2023-10-31T14:55:38.849Z,19.37
2023-10-31T14:58:06.131Z,19.28
2023-10-31T15:00:33.450Z,19.31
2023-10-31T15:03:00.939Z,19.19
2023-10-31T15:05:28.551Z,19.18
2023-10-31T15:07:56.962Z,19.10
2023-10-31T15:10:24.286Z,19.17
2023-10-31T15:12:52.892Z,19.02
2023-10-31T15:15:20.206Z,18.99
2023-10-31T15:17:49.155Z,19.06
2023-10-31T15:20:17.001Z,19.03
2023-10-31T15:22:44.683Z,19.10
2023-10-31T15:25:12.122Z,19.00
2023-10-31T15:27:39.837Z,19.06
2023-10-31T15:30:10.287Z,18.92
2023-10-31T15:32:38.255Z,18.90
2023-10-31T15:35:07.416Z,18.93
2023-10-31T15:37:35.099Z,18.90
2023-10-31T15:40:02.523Z,18.89
2023-10-31T15:42:30.031Z,18.87
2023-10-31T15:44:57.357Z,18.97
2023-10-31T15:47:24.837Z,18.85
2023-10-31T15:49:52.338Z,18.81
2023-10-31T15:52:19.776Z,18.73
2023-10-31T15:54:47.022Z,18.87
2023-10-31T15:57:18.596Z,18.71
2023-10-31T15:59:45.994Z,18.76
2023-10-31T16:02:13.263Z,18.73
2023-10-31T16:04:40.812Z,18.68
2023-10-31T16:07:10.828Z,18.69
2023-10-31T16:09:38.692Z,18.67
2023-10-31T16:12:08.234Z,18.75
2023-10-31T16:14:36.579Z,18.68
2023-10-31T16:17:12.459Z,18.78
2023-10-31T16:19:44.320Z,18.65
2023-10-31T16:22:14.594Z,18.72
2023-10-31T16:24:42.449Z,18.51
2023-10-31T16:27:09.845Z,18.47
2023-10-31T16:29:37.306Z,18.32
2023-10-31T16:32:06.843Z,18.51
2023-10-31T16:34:34.378Z,18.37
2023-10-31T16:37:01.747Z,18.40
2023-10-31T16:39:30.246Z,18.34
2023-10-31T16:41:59.114Z,18.34
2023-10-31T16:44:26.467Z,18.29
2023-10-31T16:46:53.756Z,18.24
2023-10-31T16:49:21.133Z,18.20
2023-10-31T16:51:48.434Z,17.99
2023-10-31T16:54:15.799Z,17.94
2023-10-31T16:56:43.068Z,18.07
2023-10-31T16:59:10.491Z,18.11
2023-10-31T17:01:38.259Z,18.02
2023-10-31T17:04:06.028Z,18.03
2023-10-31T17:06:36.121Z,17.94
2023-10-31T17:09:03.860Z,17.81
2023-10-31T17:11:31.815Z,18.03
2023-10-31T17:13:59.430Z,17.99
2023-10-31T17:16:26.695Z,18.03
2023-10-31T17:18:54.084Z,17.94
2023-10-31T17:21:21.467Z,17.86
2023-10-31T17:23:48.949Z,17.90
2023-10-31T17:26:16.486Z,17.88
2023-10-31T17:28:43.944Z,17.95
2023-10-31T17:31:12.493Z,17.64
2023-10-31T17:33:41.566Z,17.85
2023-10-31T17:36:10.901Z,17.80
2023-10-31T17:38:38.441Z,17.84
2023-10-31T17:41:05.863Z,17.85
2023-10-31T17:43:33.192Z,17.89
2023-10-31T17:46:00.935Z,17.88
2023-10-31T17:48:28.427Z,17.86
2023-10-31T17:50:56.661Z,17.81
2023-10-31T17:53:24.010Z,17.84
2023-10-31T17:55:51.293Z,17.67
2023-10-31T17:58:18.660Z,17.64
2023-10-31T18:00:45.938Z,17.60
2023-10-31T18:03:13.988Z,17.48
2023-10-31T18:05:41.390Z,17.41
2023-10-31T18:08:09.143Z,17.30
2023-10-31T18:10:37.116Z,17.25
2023-10-31T18:13:05.340Z,17.22
2023-10-31T18:15:32.603Z,17.19
2023-10-31T18:18:00.064Z,17.02
2023-10-31T18:20:27.485Z,17.06
2023-10-31T18:22:55.010Z,16.93
2023-10-31T18:25:22.392Z,16.90
2023-10-31T18:27:49.908Z,16.86
2023-10-31T18:30:17.395Z,16.90
2023-10-31T18:32:44.784Z,16.78
2023-10-31T18:35:12.359Z,16.72
2023-10-31T18:37:39.801Z,16.62
2023-10-31T18:40:09.898Z,16.58
2023-10-31T18:42:38.694Z,16.56
2023-10-31T18:45:06.336Z,16.61
2023-10-31T18:47:35.361Z,16.47
2023-10-31T18:50:04.933Z,16.53
2023-10-31T18:52:33.876Z,16.62
2023-10-31T18:55:02.561Z,16.52
2023-10-31T18:57:33.656Z,16.45
2023-10-31T19:00:06.610Z,16.40
2023-10-31T19:02:38.154Z,16.38
2023-10-31T19:05:05.927Z,16.30
2023-10-31T19:07:38.881Z,16.42
2023-10-31T19:10:11.300Z,16.33
2023-10-31T19:12:39.589Z,16.21
2023-10-31T19:15:07.587Z,16.32
2023-10-31T19:17:35.979Z,16.34
2023-10-31T19:20:04.874Z,16.33
2023-10-31T19:22:32.883Z,16.36
2023-10-31T19:25:00.230Z,16.32
2023-10-31T19:27:27.903Z,16.23
2023-10-31T19:29:56.059Z,16.31
2023-10-31T19:32:23.403Z,16.24
2023-10-31T19:34:52.125Z,16.31
2023-10-31T19:37:19.830Z,16.24
2023-10-31T19:39:47.195Z,16.28
2023-10-31T19:42:14.517Z,16.14
2023-10-31T19:44:41.800Z,16.25
2023-10-31T19:47:11.336Z,16.29
2023-10-31T19:49:39.157Z,16.21
2023-10-31T19:52:06.953Z,16.03
2023-10-31T19:54:34.593Z,16.10
2023-10-31T19:57:05.120Z,16.08
2023-10-31T19:59:39.638Z,16.03
2023-10-31T20:02:07.289Z,15.88
2023-10-31T20:04:34.765Z,15.93
2023-10-31T20:07:02.499Z,15.91
2023-10-31T20:09:29.946Z,15.82
2023-10-31T20:11:57.477Z,15.70
2023-10-31T20:14:24.824Z,15.72
2023-10-31T20:16:52.195Z,15.70
2023-10-31T20:19:19.488Z,15.70
2023-10-31T20:21:48.629Z,15.63
2023-10-31T20:24:15.879Z,15.62
2023-10-31T20:26:43.185Z,15.62
2023-10-31T20:29:10.645Z,15.67
2023-10-31T20:31:38.014Z,15.65
2023-10-31T20:34:06.258Z,15.57
2023-10-31T20:36:33.692Z,15.48
2023-10-31T20:39:01.752Z,15.58
2023-10-31T20:41:29.489Z,15.56
2023-10-31T20:43:57.090Z,15.51
2023-10-31T20:46:28.755Z,15.38
2023-10-31T20:48:57.160Z,15.55
2023-10-31T20:51:25.010Z,15.47
2023-10-31T20:53:52.978Z,15.51
2023-10-31T20:56:20.649Z,15.48
2023-10-31T20:58:48.135Z,15.47
2023-10-31T21:01:15.620Z,15.45
2023-10-31T21:03:43.408Z,15.38
2023-10-31T21:06:10.669Z,15.46
2023-10-31T21:08:38.514Z,15.44
2023-10-31T21:11:06.558Z,15.50
2023-10-31T21:13:37.514Z,15.47
2023-10-31T21:16:05.928Z,15.42
2023-10-31T21:18:34.815Z,15.38
2023-10-31T21:21:03.030Z,15.33
2023-10-31T21:23:31.163Z,15.28
2023-10-31T21:25:58.886Z,15.34
2023-10-31T21:28:28.006Z,15.23
2023-10-31T21:30:56.216Z,15.13
2023-10-31T21:33:25.865Z,15.12
2023-10-31T21:35:54.718Z,15.14
2023-10-31T21:38:22.011Z,15.12
2023-10-31T21:40:49.314Z,15.05
2023-10-31T21:43:16.591Z,15.06
2023-10-31T21:45:44.064Z,14.98
2023-10-31T21:48:11.807Z,14.93
2023-10-31T21:50:39.288Z,14.96
2023-10-31T21:53:06.605Z,14.90
2023-10-31T21:55:33.837Z,14.96
2023-10-31T21:58:01.183Z,14.94
2023-10-31T22:00:28.473Z,14.85
2023-10-31T22:02:55.871Z,14.88
2023-10-31T22:05:23.380Z,14.83
2023-10-31T22:07:50.777Z,14.71
2023-10-31T22:10:18.407Z,14.86
2023-10-31T22:12:45.774Z,14.81
2023-10-31T22:15:13.018Z,14.86
2023-10-31T22:17:40.545Z,14.80
2023-10-31T22:20:08.613Z,14.75
2023-10-31T22:22:35.968Z,14.73
2023-10-31T22:25:04.316Z,14.78
2023-10-31T22:27:31.669Z,14.70
2023-10-31T22:29:59.018Z,14.74
2023-10-31T22:32:26.335Z,14.70
2023-10-31T22:34:53.577Z,14.63
2023-10-31T22:37:20.862Z,14.60
2023-10-31T22:39:48.089Z,14.63
2023-10-31T22:42:15.449Z,14.58
2023-10-31T22:44:42.892Z,14.58
2023-10-31T22:47:10.128Z,14.63
2023-10-31T22:49:37.532Z,14.50
2023-10-31T22:52:05.088Z,14.43
2023-10-31T22:54:32.440Z,14.41
2023-10-31T22:56:59.599Z,14.52
2023-10-31T22:59:26.996Z,14.55
2023-10-31T23:01:57.622Z,14.55
2023-10-31T23:04:25.256Z,14.45
2023-10-31T23:06:55.682Z,14.48
2023-10-31T23:09:23.265Z,14.42
2023-10-31T23:11:50.407Z,14.47
2023-10-31T23:14:17.806Z,14.46
2023-10-31T23:16:45.069Z,14.44
2023-10-31T23:19:12.615Z,14.39
2023-10-31T23:21:40.392Z,14.38
2023-10-31T23:24:08.345Z,14.37
2023-10-31T23:26:35.585Z,14.37
2023-10-31T23:29:06.363Z,14.41
2023-10-31T23:31:33.805Z,14.40
2023-10-31T23:34:00.989Z,14.36
2023-10-31T23:36:28.306Z,14.46
2023-10-31T23:38:55.635Z,14.38
2023-10-31T23:41:22.935Z,14.45
2023-10-31T23:43:50.337Z,14.45
2023-10-31T23:46:17.774Z,14.50
2023-10-31T23:48:44.951Z,14.54
2023-10-31T23:51:12.181Z,14.52
2023-10-31T23:53:39.572Z,14.50
2023-10-31T23:56:07.319Z,14.49
2023-10-31T23:58:36.236Z,14.47
